Startpagina
METAR-TAF:

METAR-TAF

Vliegvelden :

Productieplatform

K13-a, Nederland

breedte: 53-13-04N, lengte: 3-13-13E, hoogte: 31 m

Actueel weer

Dit bericht is 49 minuten geleden gemaakt, om 13:55 UTC
Wind 5 kt uit het zuidzuidwesten, variërend tussen het zuiden en het westzuidwesten
Temperatuur 7°C
Vochtigheid 93%
Druk 1030 hPa

METAR: EHJR 231355Z AUTO 21005KT 180V240 //// // ///////// 07/06 Q1030 RE// W08/H6

Tijdstip: 15:44 (14:44 UTC)


TAF: ontbreekt

Waarnemingen en weersverwachtingen van meer dan 4000 vliegvelden (METAR en TAF).

De beschikbare stations zijn de gele en rode punten op de kaart.

Ga met uw muis naar het station om de naam te zien.

Klik dan om waarnemingen en weersverwachtingen te zien.

kaart wijzigen: klik op de groene knoppen met een zwart kruis om in te zoomen, op de groene knop met een streepje om uit te zoomen of op de groene pijlen voor aangrenzende kaarten.


METAR-TAF: